sensor_id;sensor_type;location;lat;lon;timestamp;temperature;humidity
48994;DHT22;34804;49.214;12.276;2023-06-22T00:01:45;16.20;90.40
48994;DHT22;34804;49.214;12.276;2023-06-22T00:04:12;16.20;89.80
48994;DHT22;34804;49.214;12.276;2023-06-22T00:06:39;16.20;89.90
48994;DHT22;34804;49.214;12.276;2023-06-22T00:09:06;16.20;89.70
48994;DHT22;34804;49.214;12.276;2023-06-22T00:11:33;16.30;89.60
48994;DHT22;34804;49.214;12.276;2023-06-22T00:14:00;16.10;88.20
48994;DHT22;34804;49.214;12.276;2023-06-22T00:16:27;16.00;90.40
48994;DHT22;34804;49.214;12.276;2023-06-22T00:18:54;15.90;90.20
48994;DHT22;34804;49.214;12.276;2023-06-22T00:21:21;15.90;90.80
48994;DHT22;34804;49.214;12.276;2023-06-22T00:23:48;15.90;90.80
48994;DHT22;34804;49.214;12.276;2023-06-22T00:26:14;15.90;90.60
48994;DHT22;34804;49.214;12.276;2023-06-22T00:28:41;15.90;89.20
48994;DHT22;34804;49.214;12.276;2023-06-22T00:31:08;15.80;89.40
48994;DHT22;34804;49.214;12.276;2023-06-22T00:33:35;15.80;89.90
48994;DHT22;34804;49.214;12.276;2023-06-22T00:36:02;15.90;90.50
48994;DHT22;34804;49.214;12.276;2023-06-22T00:38:29;16.00;90.70
48994;DHT22;34804;49.214;12.276;2023-06-22T00:40:56;16.00;90.20
48994;DHT22;34804;49.214;12.276;2023-06-22T00:43:23;15.90;90.30
48994;DHT22;34804;49.214;12.276;2023-06-22T00:45:50;15.70;89.90
48994;DHT22;34804;49.214;12.276;2023-06-22T00:48:17;15.50;90.70
48994;DHT22;34804;49.214;12.276;2023-06-22T00:50:44;15.50;91.50
48994;DHT22;34804;49.214;12.276;2023-06-22T00:53:11;15.40;92.00
48994;DHT22;34804;49.214;12.276;2023-06-22T00:55:42;15.40;92.30
48994;DHT22;34804;49.214;12.276;2023-06-22T00:58:14;15.50;92.30
48994;DHT22;34804;49.214;12.276;2023-06-22T01:00:41;15.60;92.10
48994;DHT22;34804;49.214;12.276;2023-06-22T01:03:08;15.70;91.60
48994;DHT22;34804;49.214;12.276;2023-06-22T01:05:37;15.80;91.50
48994;DHT22;34804;49.214;12.276;2023-06-22T01:11:07;15.70;91.60
48994;DHT22;34804;49.214;12.276;2023-06-22T01:16:33;15.60;92.10
48994;DHT22;34804;49.214;12.276;2023-06-22T01:19:05;15.50;92.20
48994;DHT22;34804;49.214;12.276;2023-06-22T01:21:34;15.50;91.80
48994;DHT22;34804;49.214;12.276;2023-06-22T01:24:23;15.50;91.40
48994;DHT22;34804;49.214;12.276;2023-06-22T01:29:51;15.60;92.60
48994;DHT22;34804;49.214;12.276;2023-06-22T01:32:19;15.70;91.90
48994;DHT22;34804;49.214;12.276;2023-06-22T01:34:47;15.60;91.40
48994;DHT22;34804;49.214;12.276;2023-06-22T01:37:15;15.70;91.90
48994;DHT22;34804;49.214;12.276;2023-06-22T01:39:42;15.70;91.90
48994;DHT22;34804;49.214;12.276;2023-06-22T01:42:10;15.70;91.80
48994;DHT22;34804;49.214;12.276;2023-06-22T01:44:37;15.60;92.30
48994;DHT22;34804;49.214;12.276;2023-06-22T01:47:05;15.60;91.30
48994;DHT22;34804;49.214;12.276;2023-06-22T01:49:33;15.50;91.40
48994;DHT22;34804;49.214;12.276;2023-06-22T01:52:00;15.40;91.30
48994;DHT22;34804;49.214;12.276;2023-06-22T01:54:27;15.30;91.20
48994;DHT22;34804;49.214;12.276;2023-06-22T01:56:54;15.30;91.20
48994;DHT22;34804;49.214;12.276;2023-06-22T01:59:26;15.30;90.80
48994;DHT22;34804;49.214;12.276;2023-06-22T02:02:06;15.20;90.20
48994;DHT22;34804;49.214;12.276;2023-06-22T02:04:38;15.10;89.90
48994;DHT22;34804;49.214;12.276;2023-06-22T02:07:11;15.10;91.30
48994;DHT22;34804;49.214;12.276;2023-06-22T02:09:42;15.00;91.30
48994;DHT22;34804;49.214;12.276;2023-06-22T02:12:17;15.20;91.80
48994;DHT22;34804;49.214;12.276;2023-06-22T02:14:45;15.20;90.60
48994;DHT22;34804;49.214;12.276;2023-06-22T02:17:17;15.20;90.80
48994;DHT22;34804;49.214;12.276;2023-06-22T02:19:45;15.30;90.50
48994;DHT22;34804;49.214;12.276;2023-06-22T02:22:12;15.30;90.80
48994;DHT22;34804;49.214;12.276;2023-06-22T02:24:41;15.40;91.30
48994;DHT22;34804;49.214;12.276;2023-06-22T02:27:08;15.30;90.90
48994;DHT22;34804;49.214;12.276;2023-06-22T02:29:35;15.40;91.30
48994;DHT22;34804;49.214;12.276;2023-06-22T02:32:02;15.40;91.30
48994;DHT22;34804;49.214;12.276;2023-06-22T02:34:31;15.40;91.90
48994;DHT22;34804;49.214;12.276;2023-06-22T02:37:00;15.60;92.30
48994;DHT22;34804;49.214;12.276;2023-06-22T02:39:29;15.70;92.20
48994;DHT22;34804;49.214;12.276;2023-06-22T02:41:56;15.80;92.40
48994;DHT22;34804;49.214;12.276;2023-06-22T02:44:22;16.00;92.70
48994;DHT22;34804;49.214;12.276;2023-06-22T02:46:49;16.10;92.70
48994;DHT22;34804;49.214;12.276;2023-06-22T02:49:16;16.20;92.30
48994;DHT22;34804;49.214;12.276;2023-06-22T02:51:48;16.30;92.50
48994;DHT22;34804;49.214;12.276;2023-06-22T02:54:15;16.30;92.60
48994;DHT22;34804;49.214;12.276;2023-06-22T02:56:44;16.40;92.80
48994;DHT22;34804;49.214;12.276;2023-06-22T02:59:11;16.50;93.20
48994;DHT22;34804;49.214;12.276;2023-06-22T03:01:38;16.50;93.30
48994;DHT22;34804;49.214;12.276;2023-06-22T03:04:07;16.60;93.50
48994;DHT22;34804;49.214;12.276;2023-06-22T03:06:35;16.60;93.40
48994;DHT22;34804;49.214;12.276;2023-06-22T03:09:04;16.60;93.70
48994;DHT22;34804;49.214;12.276;2023-06-22T03:11:32;16.60;93.70
48994;DHT22;34804;49.214;12.276;2023-06-22T03:14:00;16.60;93.80
48994;DHT22;34804;49.214;12.276;2023-06-22T03:16:28;16.70;94.20
48994;DHT22;34804;49.214;12.276;2023-06-22T03:18:55;16.70;94.50
48994;DHT22;34804;49.214;12.276;2023-06-22T03:21:23;16.80;94.60
48994;DHT22;34804;49.214;12.276;2023-06-22T03:23:50;17.00;94.80
48994;DHT22;34804;49.214;12.276;2023-06-22T03:26:18;17.10;94.80
48994;DHT22;34804;49.214;12.276;2023-06-22T03:28:45;17.10;94.70
48994;DHT22;34804;49.214;12.276;2023-06-22T03:31:12;17.10;94.40
48994;DHT22;34804;49.214;12.276;2023-06-22T03:33:39;17.20;94.70
48994;DHT22;34804;49.214;12.276;2023-06-22T03:36:06;17.20;94.70
48994;DHT22;34804;49.214;12.276;2023-06-22T03:38:32;17.30;94.60
48994;DHT22;34804;49.214;12.276;2023-06-22T03:40:59;17.30;94.70
48994;DHT22;34804;49.214;12.276;2023-06-22T03:43:26;17.30;94.50
48994;DHT22;34804;49.214;12.276;2023-06-22T03:45:53;17.30;94.50
48994;DHT22;34804;49.214;12.276;2023-06-22T03:48:20;17.30;94.50
48994;DHT22;34804;49.214;12.276;2023-06-22T03:50:47;17.30;94.80
48994;DHT22;34804;49.214;12.276;2023-06-22T03:53:13;17.30;94.90
48994;DHT22;34804;49.214;12.276;2023-06-22T03:55:48;17.30;95.00
48994;DHT22;34804;49.214;12.276;2023-06-22T03:58:17;17.40;95.00
48994;DHT22;34804;49.214;12.276;2023-06-22T04:00:54;17.40;95.00
48994;DHT22;34804;49.214;12.276;2023-06-22T04:03:21;17.40;94.90
48994;DHT22;34804;49.214;12.276;2023-06-22T04:05:48;17.50;94.90
48994;DHT22;34804;49.214;12.276;2023-06-22T04:08:15;17.50;94.90
48994;DHT22;34804;49.214;12.276;2023-06-22T04:10:42;17.50;95.00
48994;DHT22;34804;49.214;12.276;2023-06-22T04:13:09;17.50;95.00
48994;DHT22;34804;49.214;12.276;2023-06-22T04:15:36;17.60;95.20
48994;DHT22;34804;49.214;12.276;2023-06-22T04:18:03;17.60;95.00
48994;DHT22;34804;49.214;12.276;2023-06-22T04:20:31;17.60;94.80
48994;DHT22;34804;49.214;12.276;2023-06-22T04:22:59;17.60;94.70
48994;DHT22;34804;49.214;12.276;2023-06-22T04:25:26;17.50;94.60
48994;DHT22;34804;49.214;12.276;2023-06-22T04:27:53;17.50;94.70
48994;DHT22;34804;49.214;12.276;2023-06-22T04:30:20;17.60;94.70
48994;DHT22;34804;49.214;12.276;2023-06-22T04:32:47;17.60;94.60
48994;DHT22;34804;49.214;12.276;2023-06-22T04:35:24;17.70;94.80
48994;DHT22;34804;49.214;12.276;2023-06-22T04:37:52;17.80;94.60
48994;DHT22;34804;49.214;12.276;2023-06-22T04:40:22;17.90;94.60
48994;DHT22;34804;49.214;12.276;2023-06-22T04:42:49;18.00;94.40
48994;DHT22;34804;49.214;12.276;2023-06-22T04:45:20;18.00;94.30
48994;DHT22;34804;49.214;12.276;2023-06-22T04:47:48;18.10;94.20
48994;DHT22;34804;49.214;12.276;2023-06-22T04:50:15;18.30;94.10
48994;DHT22;34804;49.214;12.276;2023-06-22T04:52:42;18.30;93.80
48994;DHT22;34804;49.214;12.276;2023-06-22T04:55:09;18.30;93.40
48994;DHT22;34804;49.214;12.276;2023-06-22T04:57:35;18.30;93.50
48994;DHT22;34804;49.214;12.276;2023-06-22T05:00:06;18.30;93.30
48994;DHT22;34804;49.214;12.276;2023-06-22T05:02:51;18.40;93.20
48994;DHT22;34804;49.214;12.276;2023-06-22T05:05:24;18.40;93.20
48994;DHT22;34804;49.214;12.276;2023-06-22T05:07:52;18.50;93.00
48994;DHT22;34804;49.214;12.276;2023-06-22T05:10:26;18.50;93.10
48994;DHT22;34804;49.214;12.276;2023-06-22T05:12:54;18.60;92.90
48994;DHT22;34804;49.214;12.276;2023-06-22T05:15:20;18.60;92.60
48994;DHT22;34804;49.214;12.276;2023-06-22T05:17:48;18.60;92.70
48994;DHT22;34804;49.214;12.276;2023-06-22T05:20:15;18.80;92.20
48994;DHT22;34804;49.214;12.276;2023-06-22T05:22:45;18.80;92.10
48994;DHT22;34804;49.214;12.276;2023-06-22T05:25:13;18.80;91.70
48994;DHT22;34804;49.214;12.276;2023-06-22T05:27:39;18.90;91.60
48994;DHT22;34804;49.214;12.276;2023-06-22T05:30:07;19.00;91.70
48994;DHT22;34804;49.214;12.276;2023-06-22T05:32:35;19.00;91.10
48994;DHT22;34804;49.214;12.276;2023-06-22T05:35:03;18.90;91.20
48994;DHT22;34804;49.214;12.276;2023-06-22T05:37:30;18.80;91.40
48994;DHT22;34804;49.214;12.276;2023-06-22T05:39:56;18.90;91.60
48994;DHT22;34804;49.214;12.276;2023-06-22T05:42:24;19.00;91.20
48994;DHT22;34804;49.214;12.276;2023-06-22T05:44:53;18.90;91.70
48994;DHT22;34804;49.214;12.276;2023-06-22T05:47:20;19.10;91.60
48994;DHT22;34804;49.214;12.276;2023-06-22T05:49:47;19.10;91.20
48994;DHT22;34804;49.214;12.276;2023-06-22T05:52:14;19.10;91.10
48994;DHT22;34804;49.214;12.276;2023-06-22T05:54:40;19.20;90.90
48994;DHT22;34804;49.214;12.276;2023-06-22T05:57:08;19.20;90.80
48994;DHT22;34804;49.214;12.276;2023-06-22T05:59:35;19.30;91.00
48994;DHT22;34804;49.214;12.276;2023-06-22T06:02:02;19.30;91.10
48994;DHT22;34804;49.214;12.276;2023-06-22T06:04:29;19.30;90.40
48994;DHT22;34804;49.214;12.276;2023-06-22T06:06:56;19.40;91.00
48994;DHT22;34804;49.214;12.276;2023-06-22T06:09:23;19.50;91.10
48994;DHT22;34804;49.214;12.276;2023-06-22T06:11:49;19.60;91.30
48994;DHT22;34804;49.214;12.276;2023-06-22T06:14:16;19.70;90.90
48994;DHT22;34804;49.214;12.276;2023-06-22T06:16:43;19.80;90.70
48994;DHT22;34804;49.214;12.276;2023-06-22T06:19:10;19.80;90.10
48994;DHT22;34804;49.214;12.276;2023-06-22T06:21:37;19.80;89.80
48994;DHT22;34804;49.214;12.276;2023-06-22T06:24:04;19.90;90.00
48994;DHT22;34804;49.214;12.276;2023-06-22T06:26:31;20.10;89.40
48994;DHT22;34804;49.214;12.276;2023-06-22T06:29:00;20.20;89.20
48994;DHT22;34804;49.214;12.276;2023-06-22T06:31:27;20.30;89.20
48994;DHT22;34804;49.214;12.276;2023-06-22T06:33:55;20.30;88.40
48994;DHT22;34804;49.214;12.276;2023-06-22T06:36:22;20.50;88.50
48994;DHT22;34804;49.214;12.276;2023-06-22T06:38:49;20.70;87.80
48994;DHT22;34804;49.214;12.276;2023-06-22T06:41:16;20.80;87.30
48994;DHT22;34804;49.214;12.276;2023-06-22T06:43:43;20.80;87.20
48994;DHT22;34804;49.214;12.276;2023-06-22T06:46:10;21.00;87.20
48994;DHT22;34804;49.214;12.276;2023-06-22T06:48:37;21.10;87.30
48994;DHT22;34804;49.214;12.276;2023-06-22T06:51:05;21.30;86.70
48994;DHT22;34804;49.214;12.276;2023-06-22T06:53:32;21.40;85.90
48994;DHT22;34804;49.214;12.276;2023-06-22T06:55:59;21.60;85.60
48994;DHT22;34804;49.214;12.276;2023-06-22T06:58:26;21.70;85.70
48994;DHT22;34804;49.214;12.276;2023-06-22T07:00:53;21.80;84.30
48994;DHT22;34804;49.214;12.276;2023-06-22T07:03:20;22.00;84.90
48994;DHT22;34804;49.214;12.276;2023-06-22T07:05:47;22.10;85.30
48994;DHT22;34804;49.214;12.276;2023-06-22T07:08:15;22.30;83.70
48994;DHT22;34804;49.214;12.276;2023-06-22T07:10:41;22.40;83.20
48994;DHT22;34804;49.214;12.276;2023-06-22T07:13:08;22.60;81.80
48994;DHT22;34804;49.214;12.276;2023-06-22T07:15:35;22.80;80.80
48994;DHT22;34804;49.214;12.276;2023-06-22T07:18:02;22.80;81.00
48994;DHT22;34804;49.214;12.276;2023-06-22T07:20:29;22.90;80.20
48994;DHT22;34804;49.214;12.276;2023-06-22T07:22:56;23.00;79.80
48994;DHT22;34804;49.214;12.276;2023-06-22T07:25:25;23.10;78.80
48994;DHT22;34804;49.214;12.276;2023-06-22T07:30:26;23.30;79.00
48994;DHT22;34804;49.214;12.276;2023-06-22T07:32:54;23.40;78.90
48994;DHT22;34804;49.214;12.276;2023-06-22T07:35:21;23.60;77.80
48994;DHT22;34804;49.214;12.276;2023-06-22T07:37:47;23.80;78.40
48994;DHT22;34804;49.214;12.276;2023-06-22T07:40:14;23.90;77.00
48994;DHT22;34804;49.214;12.276;2023-06-22T07:42:41;24.10;77.30
48994;DHT22;34804;49.214;12.276;2023-06-22T07:45:08;24.20;76.10
48994;DHT22;34804;49.214;12.276;2023-06-22T07:47:35;24.30;74.90
48994;DHT22;34804;49.214;12.276;2023-06-22T07:50:03;24.30;74.50
48994;DHT22;34804;49.214;12.276;2023-06-22T07:52:31;24.40;73.50
48994;DHT22;34804;49.214;12.276;2023-06-22T07:54:58;24.60;73.50
48994;DHT22;34804;49.214;12.276;2023-06-22T07:57:25;24.60;72.90
48994;DHT22;34804;49.214;12.276;2023-06-22T08:00:04;24.50;72.00
48994;DHT22;34804;49.214;12.276;2023-06-22T08:02:44;24.70;72.70
48994;DHT22;34804;49.214;12.276;2023-06-22T08:05:11;24.90;72.60
48994;DHT22;34804;49.214;12.276;2023-06-22T08:07:48;24.90;72.10
48994;DHT22;34804;49.214;12.276;2023-06-22T08:10:16;25.10;71.50
48994;DHT22;34804;49.214;12.276;2023-06-22T08:12:43;25.20;71.60
48994;DHT22;34804;49.214;12.276;2023-06-22T08:15:10;25.30;70.80
48994;DHT22;34804;49.214;12.276;2023-06-22T08:17:38;25.40;71.30
48994;DHT22;34804;49.214;12.276;2023-06-22T08:20:07;25.60;70.10
48994;DHT22;34804;49.214;12.276;2023-06-22T08:22:39;25.70;68.10
48994;DHT22;34804;49.214;12.276;2023-06-22T08:25:07;25.80;68.00
48994;DHT22;34804;49.214;12.276;2023-06-22T08:27:34;25.90;67.10
48994;DHT22;34804;49.214;12.276;2023-06-22T08:30:02;25.90;67.40
48994;DHT22;34804;49.214;12.276;2023-06-22T08:32:30;26.00;67.30
48994;DHT22;34804;49.214;12.276;2023-06-22T08:34:59;26.10;66.70
48994;DHT22;34804;49.214;12.276;2023-06-22T08:37:27;26.20;65.90
48994;DHT22;34804;49.214;12.276;2023-06-22T08:39:59;26.30;64.20
48994;DHT22;34804;49.214;12.276;2023-06-22T08:42:26;26.30;65.10
48994;DHT22;34804;49.214;12.276;2023-06-22T08:44:53;26.40;65.30
48994;DHT22;34804;49.214;12.276;2023-06-22T08:47:20;26.60;65.40
48994;DHT22;34804;49.214;12.276;2023-06-22T08:49:48;26.80;64.10
48994;DHT22;34804;49.214;12.276;2023-06-22T08:52:16;26.90;64.40
48994;DHT22;34804;49.214;12.276;2023-06-22T08:54:43;27.10;63.40
48994;DHT22;34804;49.214;12.276;2023-06-22T08:57:10;27.20;63.90
48994;DHT22;34804;49.214;12.276;2023-06-22T08:59:37;27.30;64.90
48994;DHT22;34804;49.214;12.276;2023-06-22T09:02:05;27.50;64.60
48994;DHT22;34804;49.214;12.276;2023-06-22T09:04:32;27.60;63.50
48994;DHT22;34804;49.214;12.276;2023-06-22T09:07:01;27.60;61.80
48994;DHT22;34804;49.214;12.276;2023-06-22T09:09:30;27.80;63.80
48994;DHT22;34804;49.214;12.276;2023-06-22T09:11:57;27.90;63.50
48994;DHT22;34804;49.214;12.276;2023-06-22T09:14:24;27.80;61.80
48994;DHT22;34804;49.214;12.276;2023-06-22T09:16:56;27.80;62.40
48994;DHT22;34804;49.214;12.276;2023-06-22T09:19:27;27.80;61.80
48994;DHT22;34804;49.214;12.276;2023-06-22T09:21:54;27.80;61.30
48994;DHT22;34804;49.214;12.276;2023-06-22T09:24:21;27.90;63.90
48994;DHT22;34804;49.214;12.276;2023-06-22T09:26:48;28.10;62.70
48994;DHT22;34804;49.214;12.276;2023-06-22T09:29:15;28.00;61.60
48994;DHT22;34804;49.214;12.276;2023-06-22T09:31:42;28.10;61.80
48994;DHT22;34804;49.214;12.276;2023-06-22T09:34:09;28.30;61.80
48994;DHT22;34804;49.214;12.276;2023-06-22T09:36:36;28.30;59.30
48994;DHT22;34804;49.214;12.276;2023-06-22T09:39:03;28.50;64.40
48994;DHT22;34804;49.214;12.276;2023-06-22T09:41:33;28.50;60.50
48994;DHT22;34804;49.214;12.276;2023-06-22T09:43:59;28.70;61.80
48994;DHT22;34804;49.214;12.276;2023-06-22T09:46:26;28.70;60.00
48994;DHT22;34804;49.214;12.276;2023-06-22T09:48:54;28.70;59.10
48994;DHT22;34804;49.214;12.276;2023-06-22T09:51:22;28.80;60.20
48994;DHT22;34804;49.214;12.276;2023-06-22T09:53:51;28.90;59.60
48994;DHT22;34804;49.214;12.276;2023-06-22T09:56:18;29.00;58.00
48994;DHT22;34804;49.214;12.276;2023-06-22T09:58:46;29.00;60.50
48994;DHT22;34804;49.214;12.276;2023-06-22T10:01:13;29.20;59.80
48994;DHT22;34804;49.214;12.276;2023-06-22T10:03:43;29.20;56.70
48994;DHT22;34804;49.214;12.276;2023-06-22T10:06:10;29.30;58.30
48994;DHT22;34804;49.214;12.276;2023-06-22T10:08:37;29.40;55.50
48994;DHT22;34804;49.214;12.276;2023-06-22T10:11:10;29.30;57.90
48994;DHT22;34804;49.214;12.276;2023-06-22T10:13:36;29.30;56.90
48994;DHT22;34804;49.214;12.276;2023-06-22T10:16:03;29.60;57.30
48994;DHT22;34804;49.214;12.276;2023-06-22T10:18:30;29.70;55.60
48994;DHT22;34804;49.214;12.276;2023-06-22T10:20:57;29.90;55.10
48994;DHT22;34804;49.214;12.276;2023-06-22T10:23:24;30.20;57.10
48994;DHT22;34804;49.214;12.276;2023-06-22T10:25:51;30.20;52.80
48994;DHT22;34804;49.214;12.276;2023-06-22T10:28:18;30.40;53.00
48994;DHT22;34804;49.214;12.276;2023-06-22T10:30:45;30.70;53.40
48994;DHT22;34804;49.214;12.276;2023-06-22T10:33:12;30.80;51.10
48994;DHT22;34804;49.214;12.276;2023-06-22T10:35:39;30.80;53.40
48994;DHT22;34804;49.214;12.276;2023-06-22T10:38:06;30.90;53.30
48994;DHT22;34804;49.214;12.276;2023-06-22T10:40:34;31.00;50.10
48994;DHT22;34804;49.214;12.276;2023-06-22T10:43:01;31.00;51.20
48994;DHT22;34804;49.214;12.276;2023-06-22T10:45:28;31.00;51.10
48994;DHT22;34804;49.214;12.276;2023-06-22T10:47:55;31.20;50.50
48994;DHT22;34804;49.214;12.276;2023-06-22T10:50:22;31.30;50.40
48994;DHT22;34804;49.214;12.276;2023-06-22T10:52:51;31.20;48.60
48994;DHT22;34804;49.214;12.276;2023-06-22T10:55:18;31.30;51.90
48994;DHT22;34804;49.214;12.276;2023-06-22T10:57:45;31.40;49.90
48994;DHT22;34804;49.214;12.276;2023-06-22T11:00:14;31.50;52.20
48994;DHT22;34804;49.214;12.276;2023-06-22T11:02:42;31.70;49.10
48994;DHT22;34804;49.214;12.276;2023-06-22T11:05:09;32.00;51.30
48994;DHT22;34804;49.214;12.276;2023-06-22T11:07:37;32.00;48.00
48994;DHT22;34804;49.214;12.276;2023-06-22T11:10:10;32.20;49.70
48994;DHT22;34804;49.214;12.276;2023-06-22T11:12:37;32.20;48.60
48994;DHT22;34804;49.214;12.276;2023-06-22T11:15:05;32.30;47.40
48994;DHT22;34804;49.214;12.276;2023-06-22T11:17:32;32.40;49.60
48994;DHT22;34804;49.214;12.276;2023-06-22T11:19:59;32.50;50.20
48994;DHT22;34804;49.214;12.276;2023-06-22T11:22:27;32.50;46.70
48994;DHT22;34804;49.214;12.276;2023-06-22T11:24:54;32.30;48.10
48994;DHT22;34804;49.214;12.276;2023-06-22T11:27:21;32.50;50.50
48994;DHT22;34804;49.214;12.276;2023-06-22T11:29:47;32.50;48.70
48994;DHT22;34804;49.214;12.276;2023-06-22T11:32:14;32.80;47.80
48994;DHT22;34804;49.214;12.276;2023-06-22T11:34:41;32.50;48.00
48994;DHT22;34804;49.214;12.276;2023-06-22T11:37:08;32.80;49.20
48994;DHT22;34804;49.214;12.276;2023-06-22T11:39:35;33.10;48.90
48994;DHT22;34804;49.214;12.276;2023-06-22T11:42:09;33.20;48.10
48994;DHT22;34804;49.214;12.276;2023-06-22T11:44:36;33.40;49.00
48994;DHT22;34804;49.214;12.276;2023-06-22T11:47:03;33.50;47.50
48994;DHT22;34804;49.214;12.276;2023-06-22T11:49:31;33.60;47.30
48994;DHT22;34804;49.214;12.276;2023-06-22T11:51:58;33.50;46.00
48994;DHT22;34804;49.214;12.276;2023-06-22T11:54:25;33.40;46.30
48994;DHT22;34804;49.214;12.276;2023-06-22T11:56:52;33.30;48.90
48994;DHT22;34804;49.214;12.276;2023-06-22T11:59:18;33.40;47.90
48994;DHT22;34804;49.214;12.276;2023-06-22T12:01:46;33.50;50.20
48994;DHT22;34804;49.214;12.276;2023-06-22T12:04:14;33.70;46.90
48994;DHT22;34804;49.214;12.276;2023-06-22T12:06:41;33.60;50.10
48994;DHT22;34804;49.214;12.276;2023-06-22T12:09:09;33.70;47.60
48994;DHT22;34804;49.214;12.276;2023-06-22T12:11:36;33.70;48.30
48994;DHT22;34804;49.214;12.276;2023-06-22T12:14:04;34.10;48.80
48994;DHT22;34804;49.214;12.276;2023-06-22T12:16:31;34.20;45.90
48994;DHT22;34804;49.214;12.276;2023-06-22T12:18:58;34.40;45.50
48994;DHT22;34804;49.214;12.276;2023-06-22T12:21:24;34.30;45.50
48994;DHT22;34804;49.214;12.276;2023-06-22T12:23:51;34.20;43.70
48994;DHT22;34804;49.214;12.276;2023-06-22T12:26:18;34.60;45.20
48994;DHT22;34804;49.214;12.276;2023-06-22T12:28:45;34.90;44.40
48994;DHT22;34804;49.214;12.276;2023-06-22T12:31:12;35.30;43.10
48994;DHT22;34804;49.214;12.276;2023-06-22T12:33:39;35.40;44.70
48994;DHT22;34804;49.214;12.276;2023-06-22T12:36:06;35.50;46.10
48994;DHT22;34804;49.214;12.276;2023-06-22T12:38:33;35.70;44.50
48994;DHT22;34804;49.214;12.276;2023-06-22T12:41:00;36.00;42.60
48994;DHT22;34804;49.214;12.276;2023-06-22T12:43:27;36.30;40.10
48994;DHT22;34804;49.214;12.276;2023-06-22T12:45:54;36.60;42.10
48994;DHT22;34804;49.214;12.276;2023-06-22T12:48:22;37.10;39.60
48994;DHT22;34804;49.214;12.276;2023-06-22T12:50:49;37.30;39.00
48994;DHT22;34804;49.214;12.276;2023-06-22T12:53:16;37.80;38.00
48994;DHT22;34804;49.214;12.276;2023-06-22T12:55:42;38.30;36.90
48994;DHT22;34804;49.214;12.276;2023-06-22T12:58:09;37.80;36.10
48994;DHT22;34804;49.214;12.276;2023-06-22T13:00:37;38.20;37.20
48994;DHT22;34804;49.214;12.276;2023-06-22T13:03:04;38.50;35.40
48994;DHT22;34804;49.214;12.276;2023-06-22T13:05:31;38.60;36.20
48994;DHT22;34804;49.214;12.276;2023-06-22T13:07:57;38.70;35.00
48994;DHT22;34804;49.214;12.276;2023-06-22T13:10:24;38.90;37.20
48994;DHT22;34804;49.214;12.276;2023-06-22T13:12:51;39.10;36.70
48994;DHT22;34804;49.214;12.276;2023-06-22T13:15:21;39.30;35.40
48994;DHT22;34804;49.214;12.276;2023-06-22T13:17:48;39.30;36.40
48994;DHT22;34804;49.214;12.276;2023-06-22T13:20:15;39.60;36.70
48994;DHT22;34804;49.214;12.276;2023-06-22T13:22:41;39.40;35.60
48994;DHT22;34804;49.214;12.276;2023-06-22T13:25:10;39.50;36.40
48994;DHT22;34804;49.214;12.276;2023-06-22T13:27:41;39.80;35.20
48994;DHT22;34804;49.214;12.276;2023-06-22T13:30:09;40.10;35.60
48994;DHT22;34804;49.214;12.276;2023-06-22T13:32:40;40.30;35.10
48994;DHT22;34804;49.214;12.276;2023-06-22T13:35:10;40.80;34.80
48994;DHT22;34804;49.214;12.276;2023-06-22T13:37:37;40.70;31.60
48994;DHT22;34804;49.214;12.276;2023-06-22T13:40:07;39.80;32.30
48994;DHT22;34804;49.214;12.276;2023-06-22T13:42:34;40.30;32.10
48994;DHT22;34804;49.214;12.276;2023-06-22T13:45:02;40.30;34.00
48994;DHT22;34804;49.214;12.276;2023-06-22T13:47:29;40.20;33.40
48994;DHT22;34804;49.214;12.276;2023-06-22T13:49:58;40.10;33.70
48994;DHT22;34804;49.214;12.276;2023-06-22T13:52:25;39.70;33.60
48994;DHT22;34804;49.214;12.276;2023-06-22T13:54:52;40.30;33.70
48994;DHT22;34804;49.214;12.276;2023-06-22T13:57:19;40.60;35.00
48994;DHT22;34804;49.214;12.276;2023-06-22T13:59:46;40.90;33.10
48994;DHT22;34804;49.214;12.276;2023-06-22T14:02:13;40.60;33.40
48994;DHT22;34804;49.214;12.276;2023-06-22T14:04:40;40.30;33.80
48994;DHT22;34804;49.214;12.276;2023-06-22T14:07:07;40.80;35.30
48994;DHT22;34804;49.214;12.276;2023-06-22T14:09:34;40.30;34.80
48994;DHT22;34804;49.214;12.276;2023-06-22T14:12:05;40.10;33.60
48994;DHT22;34804;49.214;12.276;2023-06-22T14:14:33;40.40;36.30
48994;DHT22;34804;49.214;12.276;2023-06-22T14:17:00;40.40;33.50
48994;DHT22;34804;49.214;12.276;2023-06-22T14:19:27;39.20;34.50
48994;DHT22;34804;49.214;12.276;2023-06-22T14:21:54;38.90;35.90
48994;DHT22;34804;49.214;12.276;2023-06-22T14:24:21;38.80;35.70
48994;DHT22;34804;49.214;12.276;2023-06-22T14:26:51;39.10;36.00
48994;DHT22;34804;49.214;12.276;2023-06-22T14:29:17;39.30;36.30
48994;DHT22;34804;49.214;12.276;2023-06-22T14:31:48;39.20;36.90
48994;DHT22;34804;49.214;12.276;2023-06-22T14:34:15;38.80;36.30
48994;DHT22;34804;49.214;12.276;2023-06-22T14:36:42;38.50;37.60
48994;DHT22;34804;49.214;12.276;2023-06-22T14:39:09;37.50;38.80
48994;DHT22;34804;49.214;12.276;2023-06-22T14:41:36;37.20;40.20
48994;DHT22;34804;49.214;12.276;2023-06-22T14:44:03;36.70;40.20
48994;DHT22;34804;49.214;12.276;2023-06-22T14:46:30;36.60;40.70
48994;DHT22;34804;49.214;12.276;2023-06-22T14:48:57;36.40;41.80
48994;DHT22;34804;49.214;12.276;2023-06-22T14:51:24;36.80;40.60
48994;DHT22;34804;49.214;12.276;2023-06-22T14:53:51;37.80;38.00
48994;DHT22;34804;49.214;12.276;2023-06-22T14:56:18;38.80;37.20
48994;DHT22;34804;49.214;12.276;2023-06-22T14:58:45;39.50;35.70
48994;DHT22;34804;49.214;12.276;2023-06-22T15:01:13;40.20;35.80
48994;DHT22;34804;49.214;12.276;2023-06-22T15:03:40;40.70;34.40
48994;DHT22;34804;49.214;12.276;2023-06-22T15:06:08;41.00;33.70
48994;DHT22;34804;49.214;12.276;2023-06-22T15:08:39;41.20;32.00
48994;DHT22;34804;49.214;12.276;2023-06-22T15:11:07;40.90;34.50
48994;DHT22;34804;49.214;12.276;2023-06-22T15:13:34;41.40;34.10
48994;DHT22;34804;49.214;12.276;2023-06-22T15:16:02;41.20;34.10
48994;DHT22;34804;49.214;12.276;2023-06-22T15:18:30;40.90;33.50
48994;DHT22;34804;49.214;12.276;2023-06-22T15:20:57;41.10;34.00
48994;DHT22;34804;49.214;12.276;2023-06-22T15:23:26;41.60;35.50
48994;DHT22;34804;49.214;12.276;2023-06-22T15:25:56;41.40;33.70
48994;DHT22;34804;49.214;12.276;2023-06-22T15:28:23;41.90;33.60
48994;DHT22;34804;49.214;12.276;2023-06-22T15:30:50;41.80;33.30